This is the latest recevied weather packets stored in our database for station/object W6ZZY. If no packets are shown the sender has not sent any weather packets the latest 10 day(s).
| Time | Temp. | Humidity | Pressure | Rain* | Wind** | Luminosity | Snow |
|---|---|---|---|---|---|---|---|
| 1777352453 | 10° C | 86% | 1021.6 hPa | 0 mm | - | - | - |
| 1777349424 | 11.11° C | 87% | 1021.4 hPa | 0 mm | - | - | - |
| 1777348232 | 11.11° C | 84% | 1021 hPa | 0 mm | - | - | - |
| 1777347646 | 11.11° C | 83% | 1021 hPa | 0 mm | - | - | - |
| 1777339836 | 16.11° C | 66% | 1020.1 hPa | 0 mm | - | - | - |
| 1777336242 | 17.78° C | 61% | 1019.9 hPa | 0 mm | - | - | - |
| 1777327826 | 18.33° C | 60% | 1020 hPa | 0 mm | - | - | - |
| 1777324254 | 19.44° C | 57% | 1020.1 hPa | 0 mm | - | - | - |
| 1777321228 | 18.89° C | 58% | 1020.1 hPa | 0 mm | - | - | - |
| 1777320017 | 18.33° C | 57% | 1020.1 hPa | 0 mm | - | - | - |
| 1777317636 | 18.33° C | 58% | 1020.2 hPa | 0 mm | - | - | - |
| 1777316425 | 17.78° C | 61% | 1020.2 hPa | 0 mm | - | - | - |
| 1777315255 | 17.78° C | 62% | 1020.1 hPa | 0 mm | - | - | - |
| 1777314629 | 17.22° C | 62% | 1020.1 hPa | 0 mm | - | - | - |
| 1777312833 | 16.67° C | 63% | 1019.9 hPa | 0 mm | - | - | - |
| 1777312268 | 16.11° C | 65% | 1019.8 hPa | 0 mm | - | - | - |
| 1777311622 | 15.56° C | 66% | 1020 hPa | 0 mm | - | - | - |
| 1777309825 | 14.44° C | 71% | 1019.7 hPa | 0 mm | - | - | - |
| 1777305021 | 12.22° C | 82% | 1019.3 hPa | 0 mm | - | - | - |
| 1777299028 | 8.33° C | 93% | 1018.7 hPa | 0 mm | - | - | - |
| 1777298443 | 7.78° C | 93% | 1018.7 hPa | 0 mm | - | - | - |
| 1777296626 | 7.78° C | 92% | 1018.2 hPa | 0 mm | - | - | - |
| 1777290634 | 8.33° C | 89% | 1017.9 hPa | 0 mm | - | - | - |
| 1777288817 | 8.33° C | 86% | 1017.9 hPa | 0 mm | - | - | - |
| 1777284016 | 10° C | 84% | 1017.7 hPa | 0 mm | - | - | - |
* Rain latest hour (hover to see other rain measurements)
** Current wind speed in m/s (hover to see current wind gust speed)